sensor_id;sensor_type;location;lat;lon;timestamp;P1;durP1;ratioP1;P2;durP2;ratioP2
58250;SDS011;51449;51.676;5.812;2023-04-03T00:00:59;8.33;;;6.50;;
58250;SDS011;51449;51.676;5.812;2023-04-03T00:03:24;7.75;;;6.18;;
58250;SDS011;51449;51.676;5.812;2023-04-03T00:05:48;7.47;;;6.70;;
58250;SDS011;51449;51.676;5.812;2023-04-03T00:08:12;7.33;;;6.60;;
58250;SDS011;51449;51.676;5.812;2023-04-03T00:10:36;9.43;;;6.80;;
58250;SDS011;51449;51.676;5.812;2023-04-03T00:13:04;9.30;;;6.20;;
58250;SDS011;51449;51.676;5.812;2023-04-03T00:15:29;8.77;;;6.20;;
58250;SDS011;51449;51.676;5.812;2023-04-03T00:17:54;8.30;;;6.60;;
58250;SDS011;51449;51.676;5.812;2023-04-03T00:20:20;7.07;;;6.00;;
58250;SDS011;51449;51.676;5.812;2023-04-03T00:22:44;9.18;;;7.40;;
58250;SDS011;51449;51.676;5.812;2023-04-03T00:27:32;9.17;;;6.20;;
58250;SDS011;51449;51.676;5.812;2023-04-03T00:29:54;8.50;;;6.20;;
58250;SDS011;51449;51.676;5.812;2023-04-03T00:32:18;9.10;;;6.95;;
58250;SDS011;51449;51.676;5.812;2023-04-03T00:37:06;10.17;;;6.33;;
58250;SDS011;51449;51.676;5.812;2023-04-03T00:39:34;10.60;;;6.10;;
58250;SDS011;51449;51.676;5.812;2023-04-03T00:41:57;8.10;;;5.97;;
58250;SDS011;51449;51.676;5.812;2023-04-03T00:46:55;8.52;;;5.78;;
58250;SDS011;51449;51.676;5.812;2023-04-03T00:49:17;6.87;;;5.40;;
58250;SDS011;51449;51.676;5.812;2023-04-03T00:51:40;6.57;;;5.57;;
58250;SDS011;51449;51.676;5.812;2023-04-03T00:54:03;8.43;;;5.43;;
58250;SDS011;51449;51.676;5.812;2023-04-03T00:56:30;7.13;;;5.43;;
58250;SDS011;51449;51.676;5.812;2023-04-03T00:58:55;8.30;;;5.25;;
58250;SDS011;51449;51.676;5.812;2023-04-03T01:01:40;8.20;;;5.80;;
58250;SDS011;51449;51.676;5.812;2023-04-03T01:04:05;8.05;;;4.97;;
58250;SDS011;51449;51.676;5.812;2023-04-03T01:06:46;7.73;;;5.13;;
58250;SDS011;51449;51.676;5.812;2023-04-03T01:09:09;8.10;;;5.20;;
58250;SDS011;51449;51.676;5.812;2023-04-03T01:11:32;6.60;;;4.90;;
58250;SDS011;51449;51.676;5.812;2023-04-03T01:13:56;6.33;;;5.00;;
58250;SDS011;51449;51.676;5.812;2023-04-03T01:16:19;8.73;;;5.63;;
58250;SDS011;51449;51.676;5.812;2023-04-03T01:18:42;6.97;;;5.07;;
58250;SDS011;51449;51.676;5.812;2023-04-03T01:26:29;7.03;;;5.00;;
58250;SDS011;51449;51.676;5.812;2023-04-03T01:28:53;8.40;;;4.67;;
58250;SDS011;51449;51.676;5.812;2023-04-03T01:32:00;6.90;;;4.57;;
58250;SDS011;51449;51.676;5.812;2023-04-03T01:34:09;5.67;;;4.53;;
58250;SDS011;51449;51.676;5.812;2023-04-03T01:36:32;6.43;;;4.80;;
58250;SDS011;51449;51.676;5.812;2023-04-03T01:38:55;6.77;;;5.47;;
58250;SDS011;51449;51.676;5.812;2023-04-03T01:41:21;9.03;;;4.83;;
58250;SDS011;51449;51.676;5.812;2023-04-03T01:43:48;7.27;;;4.77;;
58250;SDS011;51449;51.676;5.812;2023-04-03T01:46:14;5.23;;;4.30;;
58250;SDS011;51449;51.676;5.812;2023-04-03T01:48:38;8.63;;;4.77;;
58250;SDS011;51449;51.676;5.812;2023-04-03T01:51:01;6.27;;;4.37;;
58250;SDS011;51449;51.676;5.812;2023-04-03T01:53:24;6.03;;;4.53;;
58250;SDS011;51449;51.676;5.812;2023-04-03T01:55:46;4.97;;;4.40;;
58250;SDS011;51449;51.676;5.812;2023-04-03T01:58:10;5.82;;;3.95;;
58250;SDS011;51449;51.676;5.812;2023-04-03T02:00:33;4.30;;;3.80;;
58250;SDS011;51449;51.676;5.812;2023-04-03T02:02:56;5.33;;;3.67;;
58250;SDS011;51449;51.676;5.812;2023-04-03T02:05:20;7.47;;;4.30;;
58250;SDS011;51449;51.676;5.812;2023-04-03T02:07:42;8.57;;;4.03;;
58250;SDS011;51449;51.676;5.812;2023-04-03T02:10:05;5.70;;;3.90;;
58250;SDS011;51449;51.676;5.812;2023-04-03T02:12:29;8.20;;;3.88;;
58250;SDS011;51449;51.676;5.812;2023-04-03T02:14:52;6.55;;;3.67;;
58250;SDS011;51449;51.676;5.812;2023-04-03T02:17:15;5.80;;;3.37;;
58250;SDS011;51449;51.676;5.812;2023-04-03T02:19:38;5.43;;;3.20;;
58250;SDS011;51449;51.676;5.812;2023-04-03T02:22:02;8.43;;;3.60;;
58250;SDS011;51449;51.676;5.812;2023-04-03T02:24:26;4.67;;;2.80;;
58250;SDS011;51449;51.676;5.812;2023-04-03T02:26:49;4.67;;;2.90;;
58250;SDS011;51449;51.676;5.812;2023-04-03T02:29:13;5.05;;;3.10;;
58250;SDS011;51449;51.676;5.812;2023-04-03T02:31:36;5.53;;;2.90;;
58250;SDS011;51449;51.676;5.812;2023-04-03T02:33:59;4.23;;;2.70;;
58250;SDS011;51449;51.676;5.812;2023-04-03T02:36:22;4.87;;;2.80;;
58250;SDS011;51449;51.676;5.812;2023-04-03T02:38:50;4.93;;;2.60;;
58250;SDS011;51449;51.676;5.812;2023-04-03T02:41:12;6.10;;;3.43;;
58250;SDS011;51449;51.676;5.812;2023-04-03T02:43:35;4.23;;;2.40;;
58250;SDS011;51449;51.676;5.812;2023-04-03T02:45:59;6.60;;;2.95;;
58250;SDS011;51449;51.676;5.812;2023-04-03T02:48:23;6.33;;;2.40;;
58250;SDS011;51449;51.676;5.812;2023-04-03T02:50:48;7.53;;;2.70;;
58250;SDS011;51449;51.676;5.812;2023-04-03T02:53:11;4.67;;;2.53;;
58250;SDS011;51449;51.676;5.812;2023-04-03T02:55:34;4.57;;;2.50;;
58250;SDS011;51449;51.676;5.812;2023-04-03T02:57:57;3.40;;;2.23;;
58250;SDS011;51449;51.676;5.812;2023-04-03T03:00:20;3.23;;;2.10;;
58250;SDS011;51449;51.676;5.812;2023-04-03T03:02:45;7.97;;;2.80;;
58250;SDS011;51449;51.676;5.812;2023-04-03T03:05:08;4.90;;;2.50;;
58250;SDS011;51449;51.676;5.812;2023-04-03T03:07:31;4.33;;;2.43;;
58250;SDS011;51449;51.676;5.812;2023-04-03T03:09:54;4.33;;;2.27;;
58250;SDS011;51449;51.676;5.812;2023-04-03T03:12:17;3.73;;;2.30;;
58250;SDS011;51449;51.676;5.812;2023-04-03T03:14:44;4.43;;;2.33;;
58250;SDS011;51449;51.676;5.812;2023-04-03T03:17:06;6.70;;;2.90;;
58250;SDS011;51449;51.676;5.812;2023-04-03T03:19:29;5.10;;;1.93;;
58250;SDS011;51449;51.676;5.812;2023-04-03T03:21:52;4.27;;;2.17;;
58250;SDS011;51449;51.676;5.812;2023-04-03T03:24:16;5.68;;;2.70;;
58250;SDS011;51449;51.676;5.812;2023-04-03T03:26:39;4.97;;;2.13;;
58250;SDS011;51449;51.676;5.812;2023-04-03T03:29:02;4.57;;;2.23;;
58250;SDS011;51449;51.676;5.812;2023-04-03T03:31:28;5.38;;;2.40;;
58250;SDS011;51449;51.676;5.812;2023-04-03T03:33:51;4.53;;;2.20;;
58250;SDS011;51449;51.676;5.812;2023-04-03T03:36:16;4.97;;;2.30;;
58250;SDS011;51449;51.676;5.812;2023-04-03T03:38:39;6.87;;;2.30;;
58250;SDS011;51449;51.676;5.812;2023-04-03T03:41:04;7.40;;;3.40;;
58250;SDS011;51449;51.676;5.812;2023-04-03T03:43:28;3.30;;;2.00;;
58250;SDS011;51449;51.676;5.812;2023-04-03T03:45:52;4.73;;;2.63;;
58250;SDS011;51449;51.676;5.812;2023-04-03T03:48:17;4.07;;;2.40;;
58250;SDS011;51449;51.676;5.812;2023-04-03T03:50:42;6.10;;;2.53;;
58250;SDS011;51449;51.676;5.812;2023-04-03T03:53:05;4.57;;;2.13;;
58250;SDS011;51449;51.676;5.812;2023-04-03T03:55:28;5.40;;;2.50;;
58250;SDS011;51449;51.676;5.812;2023-04-03T03:57:52;3.25;;;2.08;;
58250;SDS011;51449;51.676;5.812;2023-04-03T04:00:15;5.65;;;3.03;;
58250;SDS011;51449;51.676;5.812;2023-04-03T04:02:45;4.03;;;2.33;;
58250;SDS011;51449;51.676;5.812;2023-04-03T04:05:12;7.63;;;2.70;;
58250;SDS011;51449;51.676;5.812;2023-04-03T04:07:35;3.63;;;2.20;;
58250;SDS011;51449;51.676;5.812;2023-04-03T04:09:58;5.17;;;2.47;;
58250;SDS011;51449;51.676;5.812;2023-04-03T04:12:21;5.17;;;2.20;;
58250;SDS011;51449;51.676;5.812;2023-04-03T04:14:45;7.50;;;2.57;;
58250;SDS011;51449;51.676;5.812;2023-04-03T04:17:09;6.33;;;2.30;;
58250;SDS011;51449;51.676;5.812;2023-04-03T04:19:32;4.77;;;2.63;;
58250;SDS011;51449;51.676;5.812;2023-04-03T04:21:55;4.30;;;2.67;;
58250;SDS011;51449;51.676;5.812;2023-04-03T04:24:17;4.47;;;2.23;;
58250;SDS011;51449;51.676;5.812;2023-04-03T04:26:42;5.37;;;2.30;;
58250;SDS011;51449;51.676;5.812;2023-04-03T04:29:09;4.23;;;2.43;;
58250;SDS011;51449;51.676;5.812;2023-04-03T04:31:32;6.37;;;2.60;;
58250;SDS011;51449;51.676;5.812;2023-04-03T04:33:55;5.07;;;2.30;;
58250;SDS011;51449;51.676;5.812;2023-04-03T04:36:17;4.77;;;2.40;;
58250;SDS011;51449;51.676;5.812;2023-04-03T04:38:41;5.17;;;2.30;;
58250;SDS011;51449;51.676;5.812;2023-04-03T04:41:04;4.83;;;2.40;;
58250;SDS011;51449;51.676;5.812;2023-04-03T04:43:26;5.47;;;2.50;;
58250;SDS011;51449;51.676;5.812;2023-04-03T04:45:57;6.37;;;2.33;;
58250;SDS011;51449;51.676;5.812;2023-04-03T04:48:30;6.33;;;2.30;;
58250;SDS011;51449;51.676;5.812;2023-04-03T04:53:16;4.57;;;2.70;;
58250;SDS011;51449;51.676;5.812;2023-04-03T04:55:39;4.57;;;2.07;;
58250;SDS011;51449;51.676;5.812;2023-04-03T04:58:01;4.87;;;2.60;;
58250;SDS011;51449;51.676;5.812;2023-04-03T05:00:24;3.40;;;2.30;;
58250;SDS011;51449;51.676;5.812;2023-04-03T05:02:47;6.87;;;2.10;;
58250;SDS011;51449;51.676;5.812;2023-04-03T05:05:10;4.90;;;2.23;;
58250;SDS011;51449;51.676;5.812;2023-04-03T05:07:33;5.50;;;2.57;;
58250;SDS011;51449;51.676;5.812;2023-04-03T05:09:57;7.50;;;3.20;;
58250;SDS011;51449;51.676;5.812;2023-04-03T05:12:20;5.07;;;2.20;;
58250;SDS011;51449;51.676;5.812;2023-04-03T05:14:49;4.13;;;2.00;;
58250;SDS011;51449;51.676;5.812;2023-04-03T05:17:12;4.07;;;2.60;;
58250;SDS011;51449;51.676;5.812;2023-04-03T05:19:43;4.20;;;2.03;;
58250;SDS011;51449;51.676;5.812;2023-04-03T05:22:06;7.17;;;2.50;;
58250;SDS011;51449;51.676;5.812;2023-04-03T05:24:30;5.63;;;2.27;;
58250;SDS011;51449;51.676;5.812;2023-04-03T05:26:53;3.10;;;2.17;;
58250;SDS011;51449;51.676;5.812;2023-04-03T05:29:15;3.73;;;2.30;;
58250;SDS011;51449;51.676;5.812;2023-04-03T05:31:40;5.50;;;2.27;;
58250;SDS011;51449;51.676;5.812;2023-04-03T05:34:04;6.57;;;2.30;;
58250;SDS011;51449;51.676;5.812;2023-04-03T05:36:30;6.10;;;2.30;;
58250;SDS011;51449;51.676;5.812;2023-04-03T05:38:56;3.57;;;2.00;;
58250;SDS011;51449;51.676;5.812;2023-04-03T05:41:19;5.33;;;2.37;;
58250;SDS011;51449;51.676;5.812;2023-04-03T05:43:43;8.27;;;2.73;;
58250;SDS011;51449;51.676;5.812;2023-04-03T05:46:11;4.43;;;2.03;;
58250;SDS011;51449;51.676;5.812;2023-04-03T05:48:38;5.33;;;2.13;;
58250;SDS011;51449;51.676;5.812;2023-04-03T05:51:03;4.93;;;1.95;;
58250;SDS011;51449;51.676;5.812;2023-04-03T05:53:29;4.68;;;2.25;;
58250;SDS011;51449;51.676;5.812;2023-04-03T05:55:58;4.60;;;2.27;;
58250;SDS011;51449;51.676;5.812;2023-04-03T05:58:21;5.93;;;2.07;;
58250;SDS011;51449;51.676;5.812;2023-04-03T06:00:45;5.30;;;2.10;;
58250;SDS011;51449;51.676;5.812;2023-04-03T06:03:07;4.47;;;2.10;;
58250;SDS011;51449;51.676;5.812;2023-04-03T06:05:29;7.90;;;2.73;;
58250;SDS011;51449;51.676;5.812;2023-04-03T06:07:52;5.43;;;2.70;;
58250;SDS011;51449;51.676;5.812;2023-04-03T06:10:13;4.93;;;2.73;;
58250;SDS011;51449;51.676;5.812;2023-04-03T06:12:36;4.87;;;2.47;;
58250;SDS011;51449;51.676;5.812;2023-04-03T06:14:58;4.43;;;2.20;;
58250;SDS011;51449;51.676;5.812;2023-04-03T06:17:20;6.43;;;2.53;;
58250;SDS011;51449;51.676;5.812;2023-04-03T06:19:42;7.70;;;2.97;;
58250;SDS011;51449;51.676;5.812;2023-04-03T06:22:04;5.13;;;2.50;;
58250;SDS011;51449;51.676;5.812;2023-04-03T06:24:26;3.27;;;1.80;;
58250;SDS011;51449;51.676;5.812;2023-04-03T06:26:48;2.93;;;1.73;;
58250;SDS011;51449;51.676;5.812;2023-04-03T06:29:12;4.13;;;1.65;;
58250;SDS011;51449;51.676;5.812;2023-04-03T06:31:34;4.43;;;2.10;;
58250;SDS011;51449;51.676;5.812;2023-04-03T06:33:58;4.78;;;1.85;;
58250;SDS011;51449;51.676;5.812;2023-04-03T06:36:20;6.53;;;2.10;;
58250;SDS011;51449;51.676;5.812;2023-04-03T06:38:42;6.00;;;1.80;;
58250;SDS011;51449;51.676;5.812;2023-04-03T06:41:04;3.67;;;1.70;;
58250;SDS011;51449;51.676;5.812;2023-04-03T06:43:26;7.17;;;1.70;;
58250;SDS011;51449;51.676;5.812;2023-04-03T06:45:48;4.87;;;1.80;;
58250;SDS011;51449;51.676;5.812;2023-04-03T06:48:10;4.70;;;2.20;;
58250;SDS011;51449;51.676;5.812;2023-04-03T06:50:33;6.90;;;2.03;;
58250;SDS011;51449;51.676;5.812;2023-04-03T06:52:54;5.87;;;2.50;;
58250;SDS011;51449;51.676;5.812;2023-04-03T06:55:16;3.73;;;1.60;;
58250;SDS011;51449;51.676;5.812;2023-04-03T06:57:38;5.07;;;1.73;;
58250;SDS011;51449;51.676;5.812;2023-04-03T07:00:00;5.53;;;1.80;;
58250;SDS011;51449;51.676;5.812;2023-04-03T07:02:22;5.60;;;2.00;;
58250;SDS011;51449;51.676;5.812;2023-04-03T07:04:44;5.67;;;2.97;;
58250;SDS011;51449;51.676;5.812;2023-04-03T07:07:06;4.20;;;1.90;;
58250;SDS011;51449;51.676;5.812;2023-04-03T07:09:29;4.53;;;1.87;;
58250;SDS011;51449;51.676;5.812;2023-04-03T07:11:52;4.47;;;1.80;;
58250;SDS011;51449;51.676;5.812;2023-04-03T07:14:13;5.20;;;1.80;;
58250;SDS011;51449;51.676;5.812;2023-04-03T07:16:35;4.40;;;2.33;;
58250;SDS011;51449;51.676;5.812;2023-04-03T07:19:01;3.60;;;1.80;;
58250;SDS011;51449;51.676;5.812;2023-04-03T07:21:24;4.60;;;2.00;;
58250;SDS011;51449;51.676;5.812;2023-04-03T07:23:46;8.73;;;2.30;;
58250;SDS011;51449;51.676;5.812;2023-04-03T07:26:12;3.07;;;1.90;;
58250;SDS011;51449;51.676;5.812;2023-04-03T07:28:35;5.07;;;2.00;;
58250;SDS011;51449;51.676;5.812;2023-04-03T07:31:02;4.87;;;2.20;;
58250;SDS011;51449;51.676;5.812;2023-04-03T07:33:30;6.53;;;1.90;;
58250;SDS011;51449;51.676;5.812;2023-04-03T07:35:52;2.57;;;2.00;;
58250;SDS011;51449;51.676;5.812;2023-04-03T07:38:14;4.53;;;1.90;;
58250;SDS011;51449;51.676;5.812;2023-04-03T07:40:37;3.17;;;1.73;;
58250;SDS011;51449;51.676;5.812;2023-04-03T07:42:59;3.20;;;1.73;;
58250;SDS011;51449;51.676;5.812;2023-04-03T07:45:21;8.93;;;2.40;;
58250;SDS011;51449;51.676;5.812;2023-04-03T07:47:44;4.93;;;2.07;;
58250;SDS011;51449;51.676;5.812;2023-04-03T07:50:06;4.77;;;2.07;;
58250;SDS011;51449;51.676;5.812;2023-04-03T07:52:29;6.20;;;1.90;;
58250;SDS011;51449;51.676;5.812;2023-04-03T07:54:51;3.40;;;1.60;;
58250;SDS011;51449;51.676;5.812;2023-04-03T07:57:13;7.43;;;2.23;;
58250;SDS011;51449;51.676;5.812;2023-04-03T07:59:35;4.07;;;1.80;;
58250;SDS011;51449;51.676;5.812;2023-04-03T08:01:56;4.13;;;1.70;;
58250;SDS011;51449;51.676;5.812;2023-04-03T08:04:18;4.67;;;2.07;;
58250;SDS011;51449;51.676;5.812;2023-04-03T08:06:40;4.53;;;1.67;;
58250;SDS011;51449;51.676;5.812;2023-04-03T08:09:07;3.93;;;1.70;;
58250;SDS011;51449;51.676;5.812;2023-04-03T08:11:29;5.20;;;2.07;;
58250;SDS011;51449;51.676;5.812;2023-04-03T08:13:52;5.43;;;2.00;;
58250;SDS011;51449;51.676;5.812;2023-04-03T08:16:18;3.83;;;1.70;;
58250;SDS011;51449;51.676;5.812;2023-04-03T08:18:44;3.73;;;1.57;;
58250;SDS011;51449;51.676;5.812;2023-04-03T08:21:07;4.67;;;1.77;;
58250;SDS011;51449;51.676;5.812;2023-04-03T08:23:31;2.60;;;1.70;;
58250;SDS011;51449;51.676;5.812;2023-04-03T08:25:53;5.33;;;2.47;;
58250;SDS011;51449;51.676;5.812;2023-04-03T08:28:15;2.87;;;1.37;;
58250;SDS011;51449;51.676;5.812;2023-04-03T08:30:40;5.17;;;1.97;;
58250;SDS011;51449;51.676;5.812;2023-04-03T08:33:03;6.20;;;1.40;;
58250;SDS011;51449;51.676;5.812;2023-04-03T08:35:25;2.03;;;1.17;;
58250;SDS011;51449;51.676;5.812;2023-04-03T08:37:47;1.70;;;1.20;;
58250;SDS011;51449;51.676;5.812;2023-04-03T08:40:13;3.57;;;1.30;;
58250;SDS011;51449;51.676;5.812;2023-04-03T08:42:44;4.67;;;1.80;;
58250;SDS011;51449;51.676;5.812;2023-04-03T08:45:51;3.20;;;1.53;;
58250;SDS011;51449;51.676;5.812;2023-04-03T08:48:21;2.23;;;1.07;;
58250;SDS011;51449;51.676;5.812;2023-04-03T08:50:51;4.20;;;1.30;;
58250;SDS011;51449;51.676;5.812;2023-04-03T08:53:21;4.23;;;1.50;;
58250;SDS011;51449;51.676;5.812;2023-04-03T08:55:49;2.27;;;1.10;;
58250;SDS011;51449;51.676;5.812;2023-04-03T08:58:16;2.07;;;1.20;;
58250;SDS011;51449;51.676;5.812;2023-04-03T09:00:59;2.80;;;1.10;;
58250;SDS011;51449;51.676;5.812;2023-04-03T09:03:28;3.23;;;1.30;;
58250;SDS011;51449;51.676;5.812;2023-04-03T09:06:02;2.17;;;1.10;;
58250;SDS011;51449;51.676;5.812;2023-04-03T09:08:30;1.37;;;1.10;;
58250;SDS011;51449;51.676;5.812;2023-04-03T09:11:06;3.17;;;1.50;;
58250;SDS011;51449;51.676;5.812;2023-04-03T09:16:36;2.30;;;0.90;;
58250;SDS011;51449;51.676;5.812;2023-04-03T09:21:52;1.53;;;0.80;;
58250;SDS011;51449;51.676;5.812;2023-04-03T09:24:18;2.30;;;0.80;;
58250;SDS011;51449;51.676;5.812;2023-04-03T09:26:46;3.13;;;1.20;;
58250;SDS011;51449;51.676;5.812;2023-04-03T09:29:18;1.00;;;0.70;;
58250;SDS011;51449;51.676;5.812;2023-04-03T09:31:44;3.33;;;0.80;;
58250;SDS011;51449;51.676;5.812;2023-04-03T09:34:14;0.97;;;0.50;;
58250;SDS011;51449;51.676;5.812;2023-04-03T09:36:48;2.63;;;0.80;;
58250;SDS011;51449;51.676;5.812;2023-04-03T09:39:15;1.70;;;1.20;;
58250;SDS011;51449;51.676;5.812;2023-04-03T09:41:38;0.80;;;0.67;;
58250;SDS011;51449;51.676;5.812;2023-04-03T09:44:00;0.97;;;0.60;;
58250;SDS011;51449;51.676;5.812;2023-04-03T09:46:32;1.57;;;0.70;;
58250;SDS011;51449;51.676;5.812;2023-04-03T09:49:03;1.87;;;0.97;;
58250;SDS011;51449;51.676;5.812;2023-04-03T09:51:30;0.68;;;0.52;;
58250;SDS011;51449;51.676;5.812;2023-04-03T09:53:53;2.43;;;1.30;;
58250;SDS011;51449;51.676;5.812;2023-04-03T09:58:38;0.80;;;0.50;;
58250;SDS011;51449;51.676;5.812;2023-04-03T10:04:10;1.07;;;0.50;;
58250;SDS011;51449;51.676;5.812;2023-04-03T10:06:36;0.80;;;0.40;;
58250;SDS011;51449;51.676;5.812;2023-04-03T10:09:42;8.23;;;1.30;;
58250;SDS011;51449;51.676;5.812;2023-04-03T10:12:01;1.50;;;0.50;;
58250;SDS011;51449;51.676;5.812;2023-04-03T10:14:30;0.60;;;0.40;;
58250;SDS011;51449;51.676;5.812;2023-04-03T10:17:09;2.37;;;0.60;;
58250;SDS011;51449;51.676;5.812;2023-04-03T10:22:30;1.03;;;0.73;;
58250;SDS011;51449;51.676;5.812;2023-04-03T10:27:31;1.47;;;0.50;;
58250;SDS011;51449;51.676;5.812;2023-04-03T10:33:26;0.63;;;0.50;;
58250;SDS011;51449;51.676;5.812;2023-04-03T10:47:14;1.67;;;0.70;;
58250;SDS011;51449;51.676;5.812;2023-04-03T10:49:50;0.47;;;0.43;;
58250;SDS011;51449;51.676;5.812;2023-04-03T10:55:57;2.87;;;0.70;;
58250;SDS011;51449;51.676;5.812;2023-04-03T10:58:40;2.20;;;1.00;;
58250;SDS011;51449;51.676;5.812;2023-04-03T11:01:09;1.87;;;0.60;;
58250;SDS011;51449;51.676;5.812;2023-04-03T11:03:45;1.17;;;0.70;;
58250;SDS011;51449;51.676;5.812;2023-04-03T11:06:15;1.40;;;0.70;;
58250;SDS011;51449;51.676;5.812;2023-04-03T11:08:43;3.70;;;1.23;;
58250;SDS011;51449;51.676;5.812;2023-04-03T11:11:13;0.90;;;0.60;;
58250;SDS011;51449;51.676;5.812;2023-04-03T11:16:14;2.27;;;0.70;;
58250;SDS011;51449;51.676;5.812;2023-04-03T11:21:24;2.40;;;0.90;;
58250;SDS011;51449;51.676;5.812;2023-04-03T11:23:53;2.33;;;0.90;;
58250;SDS011;51449;51.676;5.812;2023-04-03T11:26:21;3.27;;;1.30;;
58250;SDS011;51449;51.676;5.812;2023-04-03T11:28:58;1.93;;;0.80;;
58250;SDS011;51449;51.676;5.812;2023-04-03T11:31:38;1.93;;;1.17;;
58250;SDS011;51449;51.676;5.812;2023-04-03T11:34:34;1.03;;;0.70;;
58250;SDS011;51449;51.676;5.812;2023-04-03T11:37:06;2.23;;;0.87;;
58250;SDS011;51449;51.676;5.812;2023-04-03T11:39:54;2.13;;;0.80;;
58250;SDS011;51449;51.676;5.812;2023-04-03T11:42:37;1.27;;;0.80;;
58250;SDS011;51449;51.676;5.812;2023-04-03T11:45:25;4.10;;;2.20;;
58250;SDS011;51449;51.676;5.812;2023-04-03T11:48:00;3.23;;;1.97;;
58250;SDS011;51449;51.676;5.812;2023-04-03T11:50:49;1.83;;;0.87;;
58250;SDS011;51449;51.676;5.812;2023-04-03T11:53:25;2.13;;;1.53;;
58250;SDS011;51449;51.676;5.812;2023-04-03T11:58:12;1.93;;;1.20;;
58250;SDS011;51449;51.676;5.812;2023-04-03T12:05:47;3.33;;;2.37;;
58250;SDS011;51449;51.676;5.812;2023-04-03T12:08:15;3.77;;;1.63;;
58250;SDS011;51449;51.676;5.812;2023-04-03T12:24:02;2.10;;;0.90;;
58250;SDS011;51449;51.676;5.812;2023-04-03T12:37:09;2.17;;;1.20;;
58250;SDS011;51449;51.676;5.812;2023-04-03T12:40:01;4.30;;;1.30;;
58250;SDS011;51449;51.676;5.812;2023-04-03T12:45:22;2.97;;;1.20;;
58250;SDS011;51449;51.676;5.812;2023-04-03T12:47:51;1.70;;;0.80;;
58250;SDS011;51449;51.676;5.812;2023-04-03T12:50:50;2.00;;;1.00;;
58250;SDS011;51449;51.676;5.812;2023-04-03T12:58:54;1.73;;;1.07;;
58250;SDS011;51449;51.676;5.812;2023-04-03T13:01:34;3.13;;;1.20;;
58250;SDS011;51449;51.676;5.812;2023-04-03T13:03:57;2.67;;;1.27;;
58250;SDS011;51449;51.676;5.812;2023-04-03T13:06:30;2.17;;;1.20;;
58250;SDS011;51449;51.676;5.812;2023-04-03T13:08:59;2.23;;;1.20;;
58250;SDS011;51449;51.676;5.812;2023-04-03T13:11:22;4.60;;;2.23;;
58250;SDS011;51449;51.676;5.812;2023-04-03T13:13:54;2.40;;;1.37;;
58250;SDS011;51449;51.676;5.812;2023-04-03T13:16:36;4.00;;;1.33;;
58250;SDS011;51449;51.676;5.812;2023-04-03T13:19:02;2.73;;;1.80;;
58250;SDS011;51449;51.676;5.812;2023-04-03T13:21:25;2.70;;;1.40;;
58250;SDS011;51449;51.676;5.812;2023-04-03T13:23:55;4.33;;;1.60;;
58250;SDS011;51449;51.676;5.812;2023-04-03T13:26:35;2.87;;;1.50;;
58250;SDS011;51449;51.676;5.812;2023-04-03T13:29:07;4.83;;;2.60;;
58250;SDS011;51449;51.676;5.812;2023-04-03T13:31:53;2.90;;;1.63;;
58250;SDS011;51449;51.676;5.812;2023-04-03T13:34:19;2.23;;;1.60;;
58250;SDS011;51449;51.676;5.812;2023-04-03T13:41:35;3.20;;;1.00;;
58250;SDS011;51449;51.676;5.812;2023-04-03T13:46:44;4.07;;;1.30;;
58250;SDS011;51449;51.676;5.812;2023-04-03T13:49:17;2.70;;;1.10;;
58250;SDS011;51449;51.676;5.812;2023-04-03T13:51:52;2.60;;;1.27;;
58250;SDS011;51449;51.676;5.812;2023-04-03T13:54:38;3.30;;;1.20;;
58250;SDS011;51449;51.676;5.812;2023-04-03T13:57:01;2.20;;;1.07;;
58250;SDS011;51449;51.676;5.812;2023-04-03T13:59:27;2.88;;;1.17;;
58250;SDS011;51449;51.676;5.812;2023-04-03T14:04:24;2.00;;;1.20;;
58250;SDS011;51449;51.676;5.812;2023-04-03T14:06:54;2.63;;;0.90;;
58250;SDS011;51449;51.676;5.812;2023-04-03T14:09:17;2.13;;;1.13;;
58250;SDS011;51449;51.676;5.812;2023-04-03T14:11:41;3.07;;;1.47;;
58250;SDS011;51449;51.676;5.812;2023-04-03T14:14:21;3.77;;;1.53;;
58250;SDS011;51449;51.676;5.812;2023-04-03T14:16:54;2.60;;;1.30;;
58250;SDS011;51449;51.676;5.812;2023-04-03T14:19:23;2.30;;;1.40;;
58250;SDS011;51449;51.676;5.812;2023-04-03T14:21:53;2.37;;;1.40;;
58250;SDS011;51449;51.676;5.812;2023-04-03T14:24:17;2.65;;;1.25;;
58250;SDS011;51449;51.676;5.812;2023-04-03T14:26:40;1.73;;;1.20;;
58250;SDS011;51449;51.676;5.812;2023-04-03T14:29:02;4.17;;;1.50;;
58250;SDS011;51449;51.676;5.812;2023-04-03T14:31:24;3.60;;;1.40;;
58250;SDS011;51449;51.676;5.812;2023-04-03T14:33:48;2.13;;;1.25;;
58250;SDS011;51449;51.676;5.812;2023-04-03T14:36:25;2.37;;;1.40;;
58250;SDS011;51449;51.676;5.812;2023-04-03T14:38:50;3.30;;;1.60;;
58250;SDS011;51449;51.676;5.812;2023-04-03T14:41:15;4.57;;;1.90;;
58250;SDS011;51449;51.676;5.812;2023-04-03T14:43:41;2.67;;;1.83;;
58250;SDS011;51449;51.676;5.812;2023-04-03T14:46:04;4.20;;;1.67;;
58250;SDS011;51449;51.676;5.812;2023-04-03T14:48:44;3.33;;;1.30;;
58250;SDS011;51449;51.676;5.812;2023-04-03T14:51:08;2.30;;;1.30;;
58250;SDS011;51449;51.676;5.812;2023-04-03T14:53:34;2.50;;;1.17;;
58250;SDS011;51449;51.676;5.812;2023-04-03T14:55:59;2.67;;;1.20;;
58250;SDS011;51449;51.676;5.812;2023-04-03T14:58:21;2.57;;;1.10;;
58250;SDS011;51449;51.676;5.812;2023-04-03T15:00:43;2.67;;;1.23;;
58250;SDS011;51449;51.676;5.812;2023-04-03T15:03:09;2.57;;;1.23;;
58250;SDS011;51449;51.676;5.812;2023-04-03T15:05:36;1.77;;;1.20;;
58250;SDS011;51449;51.676;5.812;2023-04-03T15:07:58;3.33;;;1.30;;
58250;SDS011;51449;51.676;5.812;2023-04-03T15:10:23;2.37;;;1.50;;
58250;SDS011;51449;51.676;5.812;2023-04-03T15:12:48;1.60;;;1.10;;
58250;SDS011;51449;51.676;5.812;2023-04-03T15:15:11;1.90;;;1.27;;
58250;SDS011;51449;51.676;5.812;2023-04-03T15:17:34;2.73;;;1.40;;
58250;SDS011;51449;51.676;5.812;2023-04-03T15:19:58;2.90;;;1.25;;
58250;SDS011;51449;51.676;5.812;2023-04-03T15:22:20;3.50;;;1.50;;
58250;SDS011;51449;51.676;5.812;2023-04-03T15:24:42;2.53;;;1.17;;
58250;SDS011;51449;51.676;5.812;2023-04-03T15:27:05;3.37;;;1.40;;
58250;SDS011;51449;51.676;5.812;2023-04-03T15:29:27;3.33;;;1.50;;
58250;SDS011;51449;51.676;5.812;2023-04-03T15:31:49;1.97;;;1.37;;
58250;SDS011;51449;51.676;5.812;2023-04-03T15:34:14;3.27;;;2.03;;
58250;SDS011;51449;51.676;5.812;2023-04-03T15:36:35;3.87;;;2.03;;
58250;SDS011;51449;51.676;5.812;2023-04-03T15:38:57;2.50;;;1.60;;
58250;SDS011;51449;51.676;5.812;2023-04-03T15:41:19;4.37;;;1.97;;
58250;SDS011;51449;51.676;5.812;2023-04-03T15:43:41;7.37;;;2.63;;
58250;SDS011;51449;51.676;5.812;2023-04-03T15:46:03;7.27;;;2.50;;
58250;SDS011;51449;51.676;5.812;2023-04-03T15:48:25;10.27;;;3.93;;
58250;SDS011;51449;51.676;5.812;2023-04-03T15:50:48;4.05;;;2.10;;
58250;SDS011;51449;51.676;5.812;2023-04-03T15:53:10;2.97;;;1.60;;
58250;SDS011;51449;51.676;5.812;2023-04-03T15:55:33;3.27;;;2.10;;
58250;SDS011;51449;51.676;5.812;2023-04-03T15:57:58;5.37;;;1.37;;
58250;SDS011;51449;51.676;5.812;2023-04-03T16:00:21;3.53;;;1.77;;
58250;SDS011;51449;51.676;5.812;2023-04-03T16:02:45;4.38;;;2.03;;
58250;SDS011;51449;51.676;5.812;2023-04-03T16:05:08;3.83;;;2.70;;
58250;SDS011;51449;51.676;5.812;2023-04-03T16:07:32;3.47;;;2.10;;
58250;SDS011;51449;51.676;5.812;2023-04-03T16:09:54;4.30;;;1.80;;
58250;SDS011;51449;51.676;5.812;2023-04-03T16:12:16;3.87;;;2.07;;
58250;SDS011;51449;51.676;5.812;2023-04-03T16:14:37;3.10;;;1.67;;
58250;SDS011;51449;51.676;5.812;2023-04-03T16:16:59;3.60;;;1.30;;
58250;SDS011;51449;51.676;5.812;2023-04-03T16:19:21;4.67;;;2.07;;
58250;SDS011;51449;51.676;5.812;2023-04-03T16:21:46;5.70;;;2.00;;
58250;SDS011;51449;51.676;5.812;2023-04-03T16:24:08;4.07;;;2.10;;
58250;SDS011;51449;51.676;5.812;2023-04-03T16:26:30;3.90;;;1.77;;